PWSweather.com
Personal Weather Stations
Station Observations
GRD01
Warsaw, LesznoPL 05-084

WarsawLesznoPL 05-084

Lat: 52.257404, Lon: 20.564847

Elevation: 298

Station Type: WH3080

http://pogoda.kampinos.waw.pl

High Low Average
Temperature 57.9°F14.4°C 47.7°F8.7°C 52.2°F11.2°C
Dew Point 48.9°F9.4°C 42.8°F6.0°C 46.3°F7.9°C
Winds 13.6 mph 21.9 kmh 0.7 mph 1.1 kmh 6.0 mph SE9.7 kmh SE
Wind Gusts 19.0 mph30.6 kmh 1.6 mph2.6 kmh 10.0 mph16.1 kmh
Humidity 88% 70% 81%
Pressure 30.07 in1018.3 mb 29.89 in1012.2 mb -
Precipitation 0.00 in0.0 mm - -
Hour Temp Dew Point Humidity Winds Wind Gusts Pressure Precip Precip Rate Daily Precip Total
12:14 AM 49.5°F9.7°C 45.8°F7.7°C 87% 5.4 mph SE8.7 kmh SE 11.4 mph18.3 kmh 29.95 in1014.2 mb 0.00 in0.0 mm 0.00 in0.0 mm 0.00 in0.0 mm
12:30 AM 49.5°F9.7°C 45.8°F7.7°C 87% 6.0 mph ESE9.7 kmh ESE 10.7 mph17.2 kmh 29.94 in1013.9 mb 0.00 in0.0 mm 0.00 in0.0 mm 0.00 in0.0 mm
12:44 AM 49.5°F9.7°C 45.8°F7.7°C 87% 4.5 mph ESE7.2 kmh ESE 9.2 mph14.8 kmh 29.95 in1014.2 mb 0.00 in0.0 mm 0.00 in0.0 mm 0.00 in0.0 mm
12:59 AM 49.6°F9.8°C 45.9°F7.7°C 87% 4.5 mph ESE7.2 kmh ESE 8.3 mph13.4 kmh 29.94 in1013.9 mb 0.00 in0.0 mm 0.00 in0.0 mm 0.00 in0.0 mm
01:14 AM 49.6°F9.8°C 45.9°F7.7°C 87% 6.9 mph SE11.1 kmh SE 9.8 mph15.8 kmh 29.94 in1013.9 mb 0.00 in0.0 mm 0.00 in0.0 mm 0.00 in0.0 mm
01:29 AM 49.8°F9.9°C 46.4°F8.0°C 88% 4.5 mph SE7.2 kmh SE 13.6 mph21.9 kmh 29.94 in1013.9 mb 0.00 in0.0 mm 0.00 in0.0 mm 0.00 in0.0 mm
01:44 AM 49.8°F9.9°C 46.4°F8.0°C 88% 6.0 mph E9.7 kmh E 12.1 mph19.5 kmh 29.96 in1014.6 mb 0.00 in0.0 mm 0.00 in0.0 mm 0.00 in0.0 mm
01:59 AM 50.0°F10.0°C 46.6°F8.1°C 88% 3.8 mph SE6.1 kmh SE 9.8 mph15.8 kmh 29.95 in1014.2 mb 0.00 in0.0 mm 0.00 in0.0 mm 0.00 in0.0 mm
02:14 AM 50.0°F10.0°C 46.6°F8.1°C 88% 6.0 mph ESE9.7 kmh ESE 9.8 mph15.8 kmh 29.93 in1013.5 mb 0.00 in0.0 mm 0.00 in0.0 mm 0.00 in0.0 mm
02:29 AM 50.0°F10.0°C 46.6°F8.1°C 88% 9.2 mph SE14.8 kmh SE 10.7 mph17.2 kmh 29.93 in1013.5 mb 0.00 in0.0 mm 0.00 in0.0 mm 0.00 in0.0 mm
02:44 AM 50.2°F10.1°C 46.8°F8.2°C 88% 5.4 mph SE8.7 kmh SE 12.1 mph19.5 kmh 29.93 in1013.5 mb 0.00 in0.0 mm 0.00 in0.0 mm 0.00 in0.0 mm
03:00 AM 50.2°F10.1°C 46.8°F8.2°C 88% 9.2 mph ESE14.8 kmh ESE 13.0 mph20.9 kmh 29.93 in1013.5 mb 0.00 in0.0 mm 0.00 in0.0 mm 0.00 in0.0 mm
03:14 AM 50.4°F10.2°C 46.9°F8.3°C 88% 5.4 mph SE8.7 kmh SE 12.1 mph19.5 kmh 29.94 in1013.9 mb 0.00 in0.0 mm 0.00 in0.0 mm 0.00 in0.0 mm
03:29 AM 50.4°F10.2°C 46.9°F8.3°C 88% 7.6 mph SE12.2 kmh SE 11.4 mph18.3 kmh 29.94 in1013.9 mb 0.00 in0.0 mm 0.00 in0.0 mm 0.00 in0.0 mm
03:44 AM 50.4°F10.2°C 46.6°F8.1°C 87% 9.2 mph SE14.8 kmh SE 12.1 mph19.5 kmh 29.93 in1013.5 mb 0.00 in0.0 mm 0.00 in0.0 mm 0.00 in0.0 mm
03:59 AM 50.4°F10.2°C 46.6°F8.1°C 87% 9.2 mph ESE14.8 kmh ESE 13.6 mph21.9 kmh 29.93 in1013.5 mb 0.00 in0.0 mm 0.00 in0.0 mm 0.00 in0.0 mm
04:14 AM 50.4°F10.2°C 46.6°F8.1°C 87% 6.0 mph SE9.7 kmh SE 12.1 mph19.5 kmh 29.93 in1013.5 mb 0.00 in0.0 mm 0.00 in0.0 mm 0.00 in0.0 mm
04:29 AM 50.2°F10.1°C 46.2°F7.9°C 86% 3.8 mph SE6.1 kmh SE 12.1 mph19.5 kmh 29.94 in1013.9 mb 0.00 in0.0 mm 0.00 in0.0 mm 0.00 in0.0 mm
04:44 AM 50.2°F10.1°C 46.2°F7.9°C 86% 8.3 mph ESE13.4 kmh ESE 11.4 mph18.3 kmh 29.93 in1013.5 mb 0.00 in0.0 mm 0.00 in0.0 mm 0.00 in0.0 mm
05:00 AM 50.0°F10.0°C 46.0°F7.8°C 86% 9.2 mph SE14.8 kmh SE 12.1 mph19.5 kmh 29.93 in1013.5 mb 0.00 in0.0 mm 0.00 in0.0 mm 0.00 in0.0 mm
05:14 AM 50.0°F10.0°C 46.0°F7.8°C 86% 8.3 mph SE13.4 kmh SE 10.7 mph17.2 kmh 29.93 in1013.5 mb 0.00 in0.0 mm 0.00 in0.0 mm 0.00 in0.0 mm
05:30 AM 50.0°F10.0°C 46.0°F7.8°C 86% 5.4 mph SE8.7 kmh SE 9.8 mph15.8 kmh 29.93 in1013.5 mb 0.00 in0.0 mm 0.00 in0.0 mm 0.00 in0.0 mm
05:44 AM 50.0°F10.0°C 46.0°F7.8°C 86% 6.0 mph SE9.7 kmh SE 9.8 mph15.8 kmh 29.93 in1013.5 mb 0.00 in0.0 mm 0.00 in0.0 mm 0.00 in0.0 mm
05:59 AM 50.2°F10.1°C 46.5°F8.1°C 87% 3.8 mph SE6.1 kmh SE 9.2 mph14.8 kmh 29.93 in1013.5 mb 0.00 in0.0 mm 0.00 in0.0 mm 0.00 in0.0 mm
06:14 AM 50.2°F10.1°C 46.5°F8.1°C 87% 5.4 mph SE8.7 kmh SE 12.1 mph19.5 kmh 29.93 in1013.5 mb 0.00 in0.0 mm 0.00 in0.0 mm 0.00 in0.0 mm
06:29 AM 50.2°F10.1°C 46.5°F8.1°C 87% 5.4 mph SE8.7 kmh SE 13.0 mph20.9 kmh 29.93 in1013.5 mb 0.00 in0.0 mm 0.00 in0.0 mm 0.00 in0.0 mm
06:44 AM 50.2°F10.1°C 46.5°F8.1°C 87% 9.2 mph SSE14.8 kmh SSE 13.6 mph21.9 kmh 29.93 in1013.5 mb 0.00 in0.0 mm 0.00 in0.0 mm 0.00 in0.0 mm
06:59 AM 50.2°F10.1°C 46.5°F8.1°C 87% 8.3 mph SE13.4 kmh SE 13.6 mph21.9 kmh 29.93 in1013.5 mb 0.00 in0.0 mm 0.00 in0.0 mm 0.00 in0.0 mm
07:14 AM 50.2°F10.1°C 46.5°F8.1°C 87% 3.8 mph SSE6.1 kmh SSE 15.9 mph25.6 kmh 29.93 in1013.5 mb 0.00 in0.0 mm 0.00 in0.0 mm 0.00 in0.0 mm
07:29 AM 50.2°F10.1°C 46.2°F7.9°C 86% 6.0 mph ESE9.7 kmh ESE 10.7 mph17.2 kmh 29.93 in1013.5 mb 0.00 in0.0 mm 0.00 in0.0 mm 0.00 in0.0 mm
07:44 AM 50.2°F10.1°C 46.2°F7.9°C 86% 9.8 mph SE15.8 kmh SE 13.6 mph21.9 kmh 29.93 in1013.5 mb 0.00 in0.0 mm 0.00 in0.0 mm 0.00 in0.0 mm
07:59 AM 50.0°F10.0°C 46.0°F7.8°C 86% 9.2 mph SE14.8 kmh SE 15.9 mph25.6 kmh 29.93 in1013.5 mb 0.00 in0.0 mm 0.00 in0.0 mm 0.00 in0.0 mm
08:14 AM 50.0°F10.0°C 46.0°F7.8°C 86% 9.8 mph SE15.8 kmh SE 13.0 mph20.9 kmh 29.93 in1013.5 mb 0.00 in0.0 mm 0.00 in0.0 mm 0.00 in0.0 mm
08:29 AM 50.0°F10.0°C 46.0°F7.8°C 86% 13.6 mph SE21.9 kmh SE 19.0 mph30.6 kmh 29.93 in1013.5 mb 0.00 in0.0 mm 0.00 in0.0 mm 0.00 in0.0 mm
08:44 AM 50.2°F10.1°C 45.8°F7.7°C 85% 8.3 mph SSE13.4 kmh SSE 14.5 mph23.3 kmh 29.93 in1013.5 mb 0.00 in0.0 mm 0.00 in0.0 mm 0.00 in0.0 mm
08:59 AM 50.4°F10.2°C 46.0°F7.8°C 85% 11.4 mph SSE18.3 kmh SSE 14.5 mph23.3 kmh 29.94 in1013.9 mb 0.00 in0.0 mm 0.00 in0.0 mm 0.00 in0.0 mm
09:14 AM 50.7°F10.4°C 46.4°F8.0°C 85% 5.4 mph SE8.7 kmh SE 13.0 mph20.9 kmh 29.93 in1013.5 mb 0.00 in0.0 mm 0.00 in0.0 mm 0.00 in0.0 mm
09:29 AM 51.3°F10.7°C 46.9°F8.3°C 85% 13.6 mph ESE21.9 kmh ESE 15.2 mph24.5 kmh 29.93 in1013.5 mb 0.00 in0.0 mm 0.00 in0.0 mm 0.00 in0.0 mm
09:44 AM 52.3°F11.3°C 48.0°F8.9°C 85% 6.0 mph SSE9.7 kmh SSE 15.2 mph24.5 kmh 29.93 in1013.5 mb 0.00 in0.0 mm 0.00 in0.0 mm 0.00 in0.0 mm
09:59 AM 53.4°F11.9°C 48.7°F9.3°C 84% 12.1 mph SE19.5 kmh SE 16.8 mph27.0 kmh 29.93 in1013.5 mb 0.00 in0.0 mm 0.00 in0.0 mm 0.00 in0.0 mm
10:14 AM 54.3°F12.4°C 48.9°F9.4°C 82% 9.2 mph SSE14.8 kmh SSE 15.9 mph25.6 kmh 29.93 in1013.5 mb 0.00 in0.0 mm 0.00 in0.0 mm 0.00 in0.0 mm
10:30 AM 55.0°F12.8°C 48.0°F8.9°C 77% 6.0 mph SE9.7 kmh SE 15.2 mph24.5 kmh 29.93 in1013.5 mb 0.00 in0.0 mm 0.00 in0.0 mm 0.00 in0.0 mm
10:44 AM 55.2°F12.9°C 47.4°F8.6°C 75% 12.1 mph SE19.5 kmh SE 15.9 mph25.6 kmh 29.93 in1013.5 mb 0.00 in0.0 mm 0.00 in0.0 mm 0.00 in0.0 mm
10:59 AM 55.0°F12.8°C 46.9°F8.3°C 74% 6.9 mph SSE11.1 kmh SSE 15.2 mph24.5 kmh 29.92 in1013.2 mb 0.00 in0.0 mm 0.00 in0.0 mm 0.00 in0.0 mm
11:14 AM 55.2°F12.9°C 47.1°F8.4°C 74% 6.0 mph SE9.7 kmh SE 11.4 mph18.3 kmh 29.92 in1013.2 mb 0.00 in0.0 mm 0.00 in0.0 mm 0.00 in0.0 mm
11:29 AM 55.8°F13.2°C 47.6°F8.7°C 74% 8.3 mph ESE13.4 kmh ESE 10.7 mph17.2 kmh 29.91 in1012.9 mb 0.00 in0.0 mm 0.00 in0.0 mm 0.00 in0.0 mm
11:44 AM 56.1°F13.4°C 47.9°F8.8°C 74% 7.6 mph SE12.2 kmh SE 11.4 mph18.3 kmh 29.91 in1012.9 mb 0.00 in0.0 mm 0.00 in0.0 mm 0.00 in0.0 mm
12:00 PM 56.5°F13.6°C 47.9°F8.8°C 73% 6.9 mph SSE11.1 kmh SSE 12.1 mph19.5 kmh 29.91 in1012.9 mb 0.00 in0.0 mm 0.00 in0.0 mm 0.00 in0.0 mm
12:14 PM 56.8°F13.8°C 47.9°F8.8°C 72% 8.3 mph SE13.4 kmh SE 13.6 mph21.9 kmh 29.90 in1012.5 mb 0.00 in0.0 mm 0.00 in0.0 mm 0.00 in0.0 mm
12:29 PM 57.0°F13.9°C 47.7°F8.7°C 71% 10.7 mph SE17.2 kmh SE 17.4 mph28.0 kmh 29.90 in1012.5 mb 0.00 in0.0 mm 0.00 in0.0 mm 0.00 in0.0 mm
12:44 PM 57.4°F14.1°C 48.1°F8.9°C 71% 5.4 mph SE8.7 kmh SE 13.6 mph21.9 kmh 29.89 in1012.2 mb 0.00 in0.0 mm 0.00 in0.0 mm 0.00 in0.0 mm
12:59 PM 57.6°F14.2°C 48.2°F9.0°C 71% 6.0 mph SE9.7 kmh SE 12.1 mph19.5 kmh 29.90 in1012.5 mb 0.00 in0.0 mm 0.00 in0.0 mm 0.00 in0.0 mm
01:14 PM 57.7°F14.3°C 48.0°F8.9°C 70% 8.3 mph SE13.4 kmh SE 15.2 mph24.5 kmh 29.89 in1012.2 mb 0.00 in0.0 mm 0.00 in0.0 mm 0.00 in0.0 mm
01:30 PM 57.9°F14.4°C 48.2°F9.0°C 70% 6.0 mph SE9.7 kmh SE 13.0 mph20.9 kmh 29.89 in1012.2 mb 0.00 in0.0 mm 0.00 in0.0 mm 0.00 in0.0 mm
01:44 PM 57.9°F14.4°C 48.2°F9.0°C 70% 11.4 mph SE18.3 kmh SE 14.5 mph23.3 kmh 29.90 in1012.5 mb 0.00 in0.0 mm 0.00 in0.0 mm 0.00 in0.0 mm
01:59 PM 57.9°F14.4°C 48.2°F9.0°C 70% 6.0 mph SSE9.7 kmh SSE 12.1 mph19.5 kmh 29.91 in1012.9 mb 0.00 in0.0 mm 0.00 in0.0 mm 0.00 in0.0 mm
02:14 PM 57.9°F14.4°C 48.2°F9.0°C 70% 6.9 mph SE11.1 kmh SE 13.6 mph21.9 kmh 29.91 in1012.9 mb 0.00 in0.0 mm 0.00 in0.0 mm 0.00 in0.0 mm
02:29 PM 57.7°F14.3°C 48.0°F8.9°C 70% 7.6 mph SSE12.2 kmh SSE 10.7 mph17.2 kmh 29.91 in1012.9 mb 0.00 in0.0 mm 0.00 in0.0 mm 0.00 in0.0 mm
02:44 PM 57.6°F14.2°C 47.8°F8.8°C 70% 6.0 mph SE9.7 kmh SE 13.0 mph20.9 kmh 29.91 in1012.9 mb 0.00 in0.0 mm 0.00 in0.0 mm 0.00 in0.0 mm
02:59 PM 57.2°F14.0°C 47.5°F8.6°C 70% 5.4 mph SSE8.7 kmh SSE 9.2 mph14.8 kmh 29.91 in1012.9 mb 0.00 in0.0 mm 0.00 in0.0 mm 0.00 in0.0 mm
03:14 PM 56.8°F13.8°C 47.5°F8.6°C 71% 6.0 mph SE9.7 kmh SE 7.6 mph12.2 kmh 29.92 in1013.2 mb 0.00 in0.0 mm 0.00 in0.0 mm 0.00 in0.0 mm
03:29 PM 56.7°F13.7°C 47.4°F8.6°C 71% 3.8 mph SE6.1 kmh SE 9.2 mph14.8 kmh 29.91 in1012.9 mb 0.00 in0.0 mm 0.00 in0.0 mm 0.00 in0.0 mm
03:44 PM 56.5°F13.6°C 47.2°F8.4°C 71% 3.1 mph SE5.0 kmh SE 8.3 mph13.4 kmh 29.91 in1012.9 mb 0.00 in0.0 mm 0.00 in0.0 mm 0.00 in0.0 mm
03:59 PM 56.1°F13.4°C 46.8°F8.2°C 71% 5.4 mph SE8.7 kmh SE 9.2 mph14.8 kmh 29.91 in1012.9 mb 0.00 in0.0 mm 0.00 in0.0 mm 0.00 in0.0 mm
04:14 PM 56.1°F13.4°C 46.8°F8.2°C 71% 6.9 mph SE11.1 kmh SE 8.3 mph13.4 kmh 29.92 in1013.2 mb 0.00 in0.0 mm 0.00 in0.0 mm 0.00 in0.0 mm
04:29 PM 55.9°F13.3°C 46.7°F8.2°C 71% 4.5 mph SE7.2 kmh SE 9.8 mph15.8 kmh 29.92 in1013.2 mb 0.00 in0.0 mm 0.00 in0.0 mm 0.00 in0.0 mm
04:44 PM 55.6°F13.1°C 46.7°F8.2°C 72% 6.0 mph SSE9.7 kmh SSE 9.2 mph14.8 kmh 29.93 in1013.5 mb 0.00 in0.0 mm 0.00 in0.0 mm 0.00 in0.0 mm
04:59 PM 54.9°F12.7°C 46.0°F7.8°C 72% 3.8 mph SE6.1 kmh SE 7.6 mph12.2 kmh 29.93 in1013.5 mb 0.00 in0.0 mm 0.00 in0.0 mm 0.00 in0.0 mm
05:14 PM 54.3°F12.4°C 46.6°F8.1°C 75% 2.2 mph SE3.5 kmh SE 7.6 mph12.2 kmh 29.94 in1013.9 mb 0.00 in0.0 mm 0.00 in0.0 mm 0.00 in0.0 mm
05:29 PM 53.8°F12.1°C 46.4°F8.0°C 76% 3.1 mph SE5.0 kmh SE 6.9 mph11.1 kmh 29.94 in1013.9 mb 0.00 in0.0 mm 0.00 in0.0 mm 0.00 in0.0 mm
05:44 PM 53.2°F11.8°C 46.2°F7.9°C 77% 2.2 mph SSE3.5 kmh SSE 7.6 mph12.2 kmh 29.94 in1013.9 mb 0.00 in0.0 mm 0.00 in0.0 mm 0.00 in0.0 mm
05:59 PM 52.5°F11.4°C 45.5°F7.5°C 77% 3.1 mph S5.0 kmh S 5.4 mph8.7 kmh 29.96 in1014.6 mb 0.00 in0.0 mm 0.00 in0.0 mm 0.00 in0.0 mm
06:14 PM 52.0°F11.1°C 45.3°F7.4°C 78% 3.1 mph SE5.0 kmh SE 8.3 mph13.4 kmh 29.96 in1014.6 mb 0.00 in0.0 mm 0.00 in0.0 mm 0.00 in0.0 mm
06:29 PM 51.4°F10.8°C 45.1°F7.3°C 79% 3.8 mph S6.1 kmh S 5.4 mph8.7 kmh 29.96 in1014.6 mb 0.00 in0.0 mm 0.00 in0.0 mm 0.00 in0.0 mm
06:44 PM 51.4°F10.8°C 45.5°F7.5°C 80% 6.0 mph SSE9.7 kmh SSE 7.6 mph12.2 kmh 29.97 in1014.9 mb 0.00 in0.0 mm 0.00 in0.0 mm 0.00 in0.0 mm
06:59 PM 51.4°F10.8°C 45.5°F7.5°C 80% 3.8 mph S6.1 kmh S 6.0 mph9.7 kmh 29.97 in1014.9 mb 0.00 in0.0 mm 0.00 in0.0 mm 0.00 in0.0 mm
07:14 PM 51.3°F10.7°C 45.3°F7.4°C 80% 3.8 mph SSE6.1 kmh SSE 7.6 mph12.2 kmh 29.98 in1015.2 mb 0.00 in0.0 mm 0.00 in0.0 mm 0.00 in0.0 mm
07:29 PM 51.1°F10.6°C 45.1°F7.3°C 80% 1.6 mph SE2.6 kmh SE 8.3 mph13.4 kmh 29.98 in1015.2 mb 0.00 in0.0 mm 0.00 in0.0 mm 0.00 in0.0 mm
07:44 PM 50.9°F10.5°C 44.9°F7.2°C 80% 3.1 mph SE5.0 kmh SE 4.5 mph7.2 kmh 29.98 in1015.2 mb 0.00 in0.0 mm 0.00 in0.0 mm 0.00 in0.0 mm
07:59 PM 50.7°F10.4°C 45.1°F7.3°C 81% 3.1 mph SSE5.0 kmh SSE 6.0 mph9.7 kmh 29.99 in1015.6 mb 0.00 in0.0 mm 0.00 in0.0 mm 0.00 in0.0 mm
08:14 PM 50.5°F10.3°C 44.9°F7.2°C 81% 3.8 mph SE6.1 kmh SE 5.4 mph8.7 kmh 29.98 in1015.2 mb 0.00 in0.0 mm 0.00 in0.0 mm 0.00 in0.0 mm
08:29 PM 50.5°F10.3°C 44.9°F7.2°C 81% 3.8 mph SE6.1 kmh SE 5.4 mph8.7 kmh 30.00 in1015.9 mb 0.00 in0.0 mm 0.00 in0.0 mm 0.00 in0.0 mm
08:44 PM 50.4°F10.2°C 45.1°F7.3°C 82% 2.2 mph SSE3.5 kmh SSE 6.0 mph9.7 kmh 30.01 in1016.3 mb 0.00 in0.0 mm 0.00 in0.0 mm 0.00 in0.0 mm
08:59 PM 50.2°F10.1°C 44.6°F7.0°C 81% 3.8 mph SSE6.1 kmh SSE 4.5 mph7.2 kmh 30.01 in1016.3 mb 0.00 in0.0 mm 0.00 in0.0 mm 0.00 in0.0 mm
09:14 PM 50.0°F10.0°C 44.7°F7.1°C 82% 3.1 mph S5.0 kmh S 3.8 mph6.1 kmh 30.01 in1016.3 mb 0.00 in0.0 mm 0.00 in0.0 mm 0.00 in0.0 mm
09:29 PM 49.8°F9.9°C 44.5°F6.9°C 82% 3.1 mph S5.0 kmh S 4.5 mph7.2 kmh 30.02 in1016.6 mb 0.00 in0.0 mm 0.00 in0.0 mm 0.00 in0.0 mm
09:44 PM 50.0°F10.0°C 44.7°F7.1°C 82% 1.6 mph S2.6 kmh S 3.8 mph6.1 kmh 30.03 in1016.9 mb 0.00 in0.0 mm 0.00 in0.0 mm 0.00 in0.0 mm
09:59 PM 49.8°F9.9°C 44.5°F6.9°C 82% 1.6 mph SE2.6 kmh SE 3.1 mph5.0 kmh 30.03 in1016.9 mb 0.00 in0.0 mm 0.00 in0.0 mm 0.00 in0.0 mm
10:14 PM 49.5°F9.7°C 44.2°F6.8°C 82% 2.2 mph SSE3.5 kmh SSE 4.5 mph7.2 kmh 30.03 in1016.9 mb 0.00 in0.0 mm 0.00 in0.0 mm 0.00 in0.0 mm
10:29 PM 49.3°F9.6°C 44.0°F6.7°C 82% 1.6 mph SE2.6 kmh SE 2.2 mph3.5 kmh 30.03 in1016.9 mb 0.00 in0.0 mm 0.00 in0.0 mm 0.00 in0.0 mm
10:44 PM 48.9°F9.4°C 43.7°F6.5°C 82% 0.7 mph SE1.1 kmh SE 2.2 mph3.5 kmh 30.04 in1017.3 mb 0.00 in0.0 mm 0.00 in0.0 mm 0.00 in0.0 mm
11:00 PM 48.7°F9.3°C 43.5°F6.4°C 82% 1.6 mph E2.6 kmh E 3.1 mph5.0 kmh 30.05 in1017.6 mb 0.00 in0.0 mm 0.00 in0.0 mm 0.00 in0.0 mm
11:14 PM 48.4°F9.1°C 43.1°F6.2°C 82% 1.6 mph SE2.6 kmh SE 3.1 mph5.0 kmh 30.05 in1017.6 mb 0.00 in0.0 mm 0.00 in0.0 mm 0.00 in0.0 mm
11:29 PM 48.4°F9.1°C 43.5°F6.4°C 83% 1.6 mph S2.6 kmh S 3.1 mph5.0 kmh 30.06 in1017.9 mb 0.00 in0.0 mm 0.00 in0.0 mm 0.00 in0.0 mm
11:44 PM 48.2°F9.0°C 43.3°F6.3°C 83% 0.7 mph S1.1 kmh S 1.6 mph2.6 kmh 30.07 in1018.3 mb 0.00 in0.0 mm 0.00 in0.0 mm 0.00 in0.0 mm
11:59 PM 47.7°F8.7°C 42.8°F6.0°C 83% 0.7 mph NNE1.1 kmh NNE 2.2 mph3.5 kmh 30.07 in1018.3 mb 0.00 in0.0 mm 0.00 in0.0 mm 0.00 in0.0 mm